sensor_id;sensor_type;location;lat;lon;timestamp;temperature;humidity
5136;DHT22;2586;48.710;9.202;2023-05-07T00:01:35;13.50;1.00
5136;DHT22;2586;48.710;9.202;2023-05-07T00:04:01;13.50;1.00
5136;DHT22;2586;48.710;9.202;2023-05-07T00:06:26;13.50;1.00
5136;DHT22;2586;48.710;9.202;2023-05-07T00:08:54;13.50;1.00
5136;DHT22;2586;48.710;9.202;2023-05-07T00:11:20;13.40;1.00
5136;DHT22;2586;48.710;9.202;2023-05-07T00:13:46;13.40;1.00
5136;DHT22;2586;48.710;9.202;2023-05-07T00:16:11;13.50;1.00
5136;DHT22;2586;48.710;9.202;2023-05-07T00:18:37;13.50;1.00
5136;DHT22;2586;48.710;9.202;2023-05-07T00:21:03;13.40;99.90
5136;DHT22;2586;48.710;9.202;2023-05-07T00:23:28;13.20;1.00
5136;DHT22;2586;48.710;9.202;2023-05-07T00:25:54;13.10;99.90
5136;DHT22;2586;48.710;9.202;2023-05-07T00:28:20;13.00;99.90
5136;DHT22;2586;48.710;9.202;2023-05-07T00:30:45;13.00;99.90
5136;DHT22;2586;48.710;9.202;2023-05-07T00:33:11;13.10;99.90
5136;DHT22;2586;48.710;9.202;2023-05-07T00:35:36;13.10;99.90
5136;DHT22;2586;48.710;9.202;2023-05-07T00:38:02;13.20;99.90
5136;DHT22;2586;48.710;9.202;2023-05-07T00:40:27;13.20;99.90
5136;DHT22;2586;48.710;9.202;2023-05-07T00:42:53;13.20;99.90
5136;DHT22;2586;48.710;9.202;2023-05-07T00:45:22;13.10;99.90
5136;DHT22;2586;48.710;9.202;2023-05-07T00:47:48;13.10;99.90
5136;DHT22;2586;48.710;9.202;2023-05-07T00:50:14;13.00;99.90
5136;DHT22;2586;48.710;9.202;2023-05-07T00:52:39;13.00;99.90
5136;DHT22;2586;48.710;9.202;2023-05-07T00:55:07;13.00;1.00
5136;DHT22;2586;48.710;9.202;2023-05-07T00:57:36;12.90;1.00
5136;DHT22;2586;48.710;9.202;2023-05-07T01:00:04;12.80;1.00
5136;DHT22;2586;48.710;9.202;2023-05-07T01:02:30;12.60;87.20
5136;DHT22;2586;48.710;9.202;2023-05-07T01:04:56;12.60;1.00
5136;DHT22;2586;48.710;9.202;2023-05-07T01:07:22;12.50;94.00
5136;DHT22;2586;48.710;9.202;2023-05-07T01:09:48;12.60;11.30
5136;DHT22;2586;48.710;9.202;2023-05-07T01:12:14;12.60;1.00
5136;DHT22;2586;48.710;9.202;2023-05-07T01:14:40;12.60;99.90
5136;DHT22;2586;48.710;9.202;2023-05-07T01:17:06;12.60;99.90
5136;DHT22;2586;48.710;9.202;2023-05-07T01:19:32;12.60;1.00
5136;DHT22;2586;48.710;9.202;2023-05-07T01:22:02;12.70;1.00
5136;DHT22;2586;48.710;9.202;2023-05-07T01:24:31;12.70;1.00
5136;DHT22;2586;48.710;9.202;2023-05-07T01:26:56;12.70;99.90
5136;DHT22;2586;48.710;9.202;2023-05-07T01:29:22;12.70;99.90
5136;DHT22;2586;48.710;9.202;2023-05-07T01:31:47;12.70;99.90
5136;DHT22;2586;48.710;9.202;2023-05-07T01:34:17;12.70;1.00
5136;DHT22;2586;48.710;9.202;2023-05-07T01:36:44;12.70;1.00
5136;DHT22;2586;48.710;9.202;2023-05-07T01:39:10;12.70;99.90
5136;DHT22;2586;48.710;9.202;2023-05-07T01:41:36;12.70;99.90
5136;DHT22;2586;48.710;9.202;2023-05-07T01:44:03;12.60;99.90
5136;DHT22;2586;48.710;9.202;2023-05-07T01:46:31;12.50;1.00
5136;DHT22;2586;48.710;9.202;2023-05-07T01:48:58;12.40;85.60
5136;DHT22;2586;48.710;9.202;2023-05-07T01:51:23;12.50;1.00
5136;DHT22;2586;48.710;9.202;2023-05-07T01:53:49;12.60;1.00
5136;DHT22;2586;48.710;9.202;2023-05-07T01:56:17;12.50;99.90
5136;DHT22;2586;48.710;9.202;2023-05-07T01:58:44;12.50;7.70
5136;DHT22;2586;48.710;9.202;2023-05-07T02:01:12;12.50;99.90
5136;DHT22;2586;48.710;9.202;2023-05-07T02:03:37;12.30;99.90
5136;DHT22;2586;48.710;9.202;2023-05-07T02:06:03;12.40;43.90
5136;DHT22;2586;48.710;9.202;2023-05-07T02:08:28;12.30;1.00
5136;DHT22;2586;48.710;9.202;2023-05-07T02:10:55;12.30;95.30
5136;DHT22;2586;48.710;9.202;2023-05-07T02:13:20;12.40;99.90
5136;DHT22;2586;48.710;9.202;2023-05-07T02:15:47;12.30;1.00
5136;DHT22;2586;48.710;9.202;2023-05-07T02:18:16;12.30;99.90
5136;DHT22;2586;48.710;9.202;2023-05-07T02:20:42;12.30;65.60
5136;DHT22;2586;48.710;9.202;2023-05-07T02:23:08;12.40;1.00
5136;DHT22;2586;48.710;9.202;2023-05-07T02:25:33;12.40;99.90
5136;DHT22;2586;48.710;9.202;2023-05-07T02:27:59;12.50;99.90
5136;DHT22;2586;48.710;9.202;2023-05-07T02:30:25;12.60;1.00
5136;DHT22;2586;48.710;9.202;2023-05-07T02:32:51;12.50;1.00
5136;DHT22;2586;48.710;9.202;2023-05-07T02:35:17;12.50;1.00
5136;DHT22;2586;48.710;9.202;2023-05-07T02:37:43;12.50;1.00
5136;DHT22;2586;48.710;9.202;2023-05-07T02:40:09;12.50;1.00
5136;DHT22;2586;48.710;9.202;2023-05-07T02:42:35;12.40;1.00
5136;DHT22;2586;48.710;9.202;2023-05-07T02:45:00;12.40;99.90
5136;DHT22;2586;48.710;9.202;2023-05-07T02:47:26;12.30;99.90
5136;DHT22;2586;48.710;9.202;2023-05-07T02:49:55;12.20;99.90
5136;DHT22;2586;48.710;9.202;2023-05-07T02:52:21;12.20;1.00
5136;DHT22;2586;48.710;9.202;2023-05-07T02:54:46;12.00;1.00
5136;DHT22;2586;48.710;9.202;2023-05-07T02:57:12;11.90;1.00
5136;DHT22;2586;48.710;9.202;2023-05-07T02:59:38;11.80;99.90
5136;DHT22;2586;48.710;9.202;2023-05-07T03:02:03;11.70;99.90
5136;DHT22;2586;48.710;9.202;2023-05-07T03:04:29;11.70;99.90
5136;DHT22;2586;48.710;9.202;2023-05-07T03:06:54;11.80;1.00
5136;DHT22;2586;48.710;9.202;2023-05-07T03:09:20;11.80;1.00
5136;DHT22;2586;48.710;9.202;2023-05-07T03:11:46;11.80;99.90
5136;DHT22;2586;48.710;9.202;2023-05-07T03:14:11;11.80;29.80
5136;DHT22;2586;48.710;9.202;2023-05-07T03:16:38;11.80;1.00
5136;DHT22;2586;48.710;9.202;2023-05-07T03:19:03;11.80;99.90
5136;DHT22;2586;48.710;9.202;2023-05-07T03:21:29;11.80;99.90
5136;DHT22;2586;48.710;9.202;2023-05-07T03:23:55;11.80;99.90
5136;DHT22;2586;48.710;9.202;2023-05-07T03:26:21;11.70;1.00
5136;DHT22;2586;48.710;9.202;2023-05-07T03:28:47;11.70;1.00
5136;DHT22;2586;48.710;9.202;2023-05-07T03:31:12;11.70;1.00
5136;DHT22;2586;48.710;9.202;2023-05-07T03:33:52;11.70;68.60
5136;DHT22;2586;48.710;9.202;2023-05-07T03:36:18;11.70;1.00
5136;DHT22;2586;48.710;9.202;2023-05-07T03:38:44;11.50;1.00
5136;DHT22;2586;48.710;9.202;2023-05-07T03:41:09;11.40;95.60
5136;DHT22;2586;48.710;9.202;2023-05-07T03:43:35;11.30;99.90
5136;DHT22;2586;48.710;9.202;2023-05-07T03:46:00;11.30;99.90
5136;DHT22;2586;48.710;9.202;2023-05-07T03:48:26;11.20;99.90
5136;DHT22;2586;48.710;9.202;2023-05-07T03:50:51;11.30;1.00
5136;DHT22;2586;48.710;9.202;2023-05-07T03:53:17;11.30;99.90
5136;DHT22;2586;48.710;9.202;2023-05-07T03:55:42;11.30;99.90
5136;DHT22;2586;48.710;9.202;2023-05-07T03:58:08;11.40;50.80
5136;DHT22;2586;48.710;9.202;2023-05-07T04:00:34;11.30;99.90
5136;DHT22;2586;48.710;9.202;2023-05-07T04:03:03;11.30;99.90
5136;DHT22;2586;48.710;9.202;2023-05-07T04:05:30;11.30;1.00
5136;DHT22;2586;48.710;9.202;2023-05-07T04:07:55;11.20;1.00
5136;DHT22;2586;48.710;9.202;2023-05-07T04:10:21;11.20;1.00
5136;DHT22;2586;48.710;9.202;2023-05-07T04:12:47;11.20;1.00
5136;DHT22;2586;48.710;9.202;2023-05-07T04:15:12;11.30;99.90
5136;DHT22;2586;48.710;9.202;2023-05-07T04:17:38;11.30;99.90
5136;DHT22;2586;48.710;9.202;2023-05-07T04:20:04;11.30;99.90
5136;DHT22;2586;48.710;9.202;2023-05-07T04:22:32;11.30;99.90
5136;DHT22;2586;48.710;9.202;2023-05-07T04:24:58;11.40;99.90
5136;DHT22;2586;48.710;9.202;2023-05-07T04:27:23;11.20;1.00
5136;DHT22;2586;48.710;9.202;2023-05-07T04:29:49;11.00;99.90
5136;DHT22;2586;48.710;9.202;2023-05-07T04:32:14;11.10;1.30
5136;DHT22;2586;48.710;9.202;2023-05-07T04:34:40;11.00;99.90
5136;DHT22;2586;48.710;9.202;2023-05-07T04:37:06;11.00;76.30
5136;DHT22;2586;48.710;9.202;2023-05-07T04:39:32;11.10;84.40
5136;DHT22;2586;48.710;9.202;2023-05-07T04:41:58;11.10;1.00
5136;DHT22;2586;48.710;9.202;2023-05-07T04:44:23;11.20;1.00
5136;DHT22;2586;48.710;9.202;2023-05-07T04:46:50;11.30;99.90
5136;DHT22;2586;48.710;9.202;2023-05-07T04:49:15;11.40;99.90
5136;DHT22;2586;48.710;9.202;2023-05-07T04:51:41;11.40;1.00
5136;DHT22;2586;48.710;9.202;2023-05-07T04:54:08;11.50;1.00
5136;DHT22;2586;48.710;9.202;2023-05-07T04:56:33;11.50;71.20
5136;DHT22;2586;48.710;9.202;2023-05-07T04:58:59;11.50;1.00
5136;DHT22;2586;48.710;9.202;2023-05-07T05:01:24;11.60;1.00
5136;DHT22;2586;48.710;9.202;2023-05-07T05:03:50;11.60;1.00
5136;DHT22;2586;48.710;9.202;2023-05-07T05:06:16;11.60;99.90
5136;DHT22;2586;48.710;9.202;2023-05-07T05:08:41;11.70;99.90
5136;DHT22;2586;48.710;9.202;2023-05-07T05:11:07;11.80;99.90
5136;DHT22;2586;48.710;9.202;2023-05-07T05:13:32;11.90;1.00
5136;DHT22;2586;48.710;9.202;2023-05-07T05:15:58;11.90;99.90
5136;DHT22;2586;48.710;9.202;2023-05-07T05:18:23;12.00;99.90
5136;DHT22;2586;48.710;9.202;2023-05-07T05:20:49;12.10;99.90
5136;DHT22;2586;48.710;9.202;2023-05-07T05:23:15;12.00;99.90
5136;DHT22;2586;48.710;9.202;2023-05-07T05:25:40;12.00;99.90
5136;DHT22;2586;48.710;9.202;2023-05-07T05:28:06;12.10;99.90
5136;DHT22;2586;48.710;9.202;2023-05-07T05:30:31;12.10;1.00
5136;DHT22;2586;48.710;9.202;2023-05-07T05:32:57;12.20;1.00
5136;DHT22;2586;48.710;9.202;2023-05-07T05:35:22;12.20;1.00
5136;DHT22;2586;48.710;9.202;2023-05-07T05:37:48;12.30;38.70
5136;DHT22;2586;48.710;9.202;2023-05-07T05:40:13;12.40;99.90
5136;DHT22;2586;48.710;9.202;2023-05-07T05:42:39;12.50;1.00
5136;DHT22;2586;48.710;9.202;2023-05-07T05:45:05;12.70;1.00
5136;DHT22;2586;48.710;9.202;2023-05-07T05:47:32;12.90;99.90
5136;DHT22;2586;48.710;9.202;2023-05-07T05:49:58;13.10;1.00
5136;DHT22;2586;48.710;9.202;2023-05-07T05:52:23;13.30;99.90
5136;DHT22;2586;48.710;9.202;2023-05-07T05:54:49;13.40;99.90
5136;DHT22;2586;48.710;9.202;2023-05-07T05:57:15;13.60;33.00
5136;DHT22;2586;48.710;9.202;2023-05-07T05:59:40;13.80;1.00
5136;DHT22;2586;48.710;9.202;2023-05-07T06:02:06;13.90;1.00
5136;DHT22;2586;48.710;9.202;2023-05-07T06:04:32;13.90;99.90
5136;DHT22;2586;48.710;9.202;2023-05-07T06:06:57;14.00;99.90
5136;DHT22;2586;48.710;9.202;2023-05-07T06:09:23;14.10;99.90
5136;DHT22;2586;48.710;9.202;2023-05-07T06:11:49;14.20;99.90
5136;DHT22;2586;48.710;9.202;2023-05-07T06:14:15;14.40;61.40
5136;DHT22;2586;48.710;9.202;2023-05-07T06:16:40;14.40;1.00
5136;DHT22;2586;48.710;9.202;2023-05-07T06:19:07;14.40;1.00
5136;DHT22;2586;48.710;9.202;2023-05-07T06:21:32;14.50;1.00
5136;DHT22;2586;48.710;9.202;2023-05-07T06:23:58;14.50;99.90
5136;DHT22;2586;48.710;9.202;2023-05-07T06:26:23;14.60;1.00
5136;DHT22;2586;48.710;9.202;2023-05-07T06:28:49;14.70;1.00
5136;DHT22;2586;48.710;9.202;2023-05-07T06:31:16;14.90;1.00
5136;DHT22;2586;48.710;9.202;2023-05-07T06:33:43;15.00;1.00
5136;DHT22;2586;48.710;9.202;2023-05-07T06:36:09;15.10;99.90
5136;DHT22;2586;48.710;9.202;2023-05-07T06:38:35;15.10;99.90
5136;DHT22;2586;48.710;9.202;2023-05-07T06:41:01;15.10;99.90
5136;DHT22;2586;48.710;9.202;2023-05-07T06:43:27;15.20;99.90
5136;DHT22;2586;48.710;9.202;2023-05-07T06:45:55;15.30;99.90
5136;DHT22;2586;48.710;9.202;2023-05-07T06:48:21;15.40;99.90
5136;DHT22;2586;48.710;9.202;2023-05-07T06:50:46;15.40;99.90
5136;DHT22;2586;48.710;9.202;2023-05-07T06:53:12;15.50;99.90
5136;DHT22;2586;48.710;9.202;2023-05-07T06:55:38;15.60;99.90
5136;DHT22;2586;48.710;9.202;2023-05-07T06:58:03;15.80;99.90
5136;DHT22;2586;48.710;9.202;2023-05-07T07:00:29;16.10;99.90
5136;DHT22;2586;48.710;9.202;2023-05-07T07:02:55;16.20;72.30
5136;DHT22;2586;48.710;9.202;2023-05-07T07:05:20;16.40;41.60
5136;DHT22;2586;48.710;9.202;2023-05-07T07:07:46;16.50;99.90
5136;DHT22;2586;48.710;9.202;2023-05-07T07:10:19;16.60;1.00
5136;DHT22;2586;48.710;9.202;2023-05-07T07:12:45;16.90;2.80
5136;DHT22;2586;48.710;9.202;2023-05-07T07:15:11;17.00;1.00
5136;DHT22;2586;48.710;9.202;2023-05-07T07:17:36;17.10;1.00
5136;DHT22;2586;48.710;9.202;2023-05-07T07:20:02;17.20;1.00
5136;DHT22;2586;48.710;9.202;2023-05-07T07:22:29;17.50;1.00
5136;DHT22;2586;48.710;9.202;2023-05-07T07:24:54;17.60;1.00
5136;DHT22;2586;48.710;9.202;2023-05-07T07:27:20;17.80;1.00
5136;DHT22;2586;48.710;9.202;2023-05-07T07:29:45;18.10;99.90
5136;DHT22;2586;48.710;9.202;2023-05-07T07:32:11;18.10;99.90
5136;DHT22;2586;48.710;9.202;2023-05-07T07:34:36;18.40;99.90
5136;DHT22;2586;48.710;9.202;2023-05-07T07:37:02;18.50;99.90
5136;DHT22;2586;48.710;9.202;2023-05-07T07:39:31;18.70;99.90
5136;DHT22;2586;48.710;9.202;2023-05-07T07:41:56;18.90;99.90
5136;DHT22;2586;48.710;9.202;2023-05-07T07:44:22;19.00;99.90
5136;DHT22;2586;48.710;9.202;2023-05-07T07:46:48;19.20;99.90
5136;DHT22;2586;48.710;9.202;2023-05-07T07:49:14;19.30;99.90
5136;DHT22;2586;48.710;9.202;2023-05-07T07:51:40;19.40;99.90
5136;DHT22;2586;48.710;9.202;2023-05-07T07:54:05;19.00;99.90
5136;DHT22;2586;48.710;9.202;2023-05-07T07:56:32;18.90;99.90
5136;DHT22;2586;48.710;9.202;2023-05-07T07:58:59;19.10;99.90
5136;DHT22;2586;48.710;9.202;2023-05-07T08:01:24;19.30;99.90
5136;DHT22;2586;48.710;9.202;2023-05-07T08:03:51;19.60;99.90
5136;DHT22;2586;48.710;9.202;2023-05-07T08:06:16;19.50;99.90
5136;DHT22;2586;48.710;9.202;2023-05-07T08:08:42;19.10;99.90
5136;DHT22;2586;48.710;9.202;2023-05-07T08:11:08;19.50;99.90
5136;DHT22;2586;48.710;9.202;2023-05-07T08:13:34;20.00;99.90
5136;DHT22;2586;48.710;9.202;2023-05-07T08:16:00;20.30;99.90
5136;DHT22;2586;48.710;9.202;2023-05-07T08:18:25;20.60;99.90
5136;DHT22;2586;48.710;9.202;2023-05-07T08:20:51;20.60;85.30
5136;DHT22;2586;48.710;9.202;2023-05-07T08:23:17;20.60;80.80
5136;DHT22;2586;48.710;9.202;2023-05-07T08:25:42;20.80;81.00
5136;DHT22;2586;48.710;9.202;2023-05-07T08:28:08;21.20;81.40
5136;DHT22;2586;48.710;9.202;2023-05-07T08:30:34;21.30;32.10
5136;DHT22;2586;48.710;9.202;2023-05-07T08:33:00;21.40;23.20
5136;DHT22;2586;48.710;9.202;2023-05-07T08:35:25;21.50;25.70
5136;DHT22;2586;48.710;9.202;2023-05-07T08:37:52;21.80;17.40
5136;DHT22;2586;48.710;9.202;2023-05-07T08:40:18;22.30;25.90
5136;DHT22;2586;48.710;9.202;2023-05-07T08:42:44;22.50;11.10
5136;DHT22;2586;48.710;9.202;2023-05-07T08:45:10;22.80;7.00
5136;DHT22;2586;48.710;9.202;2023-05-07T08:47:43;22.80;1.00
5136;DHT22;2586;48.710;9.202;2023-05-07T08:50:13;23.00;1.00
5136;DHT22;2586;48.710;9.202;2023-05-07T08:52:41;23.10;1.00
5136;DHT22;2586;48.710;9.202;2023-05-07T08:55:08;23.30;1.00
5136;DHT22;2586;48.710;9.202;2023-05-07T08:57:34;22.80;1.00
5136;DHT22;2586;48.710;9.202;2023-05-07T08:59:59;22.50;1.00
5136;DHT22;2586;48.710;9.202;2023-05-07T09:02:25;22.80;1.00
5136;DHT22;2586;48.710;9.202;2023-05-07T09:04:51;22.90;1.00
5136;DHT22;2586;48.710;9.202;2023-05-07T09:07:19;22.90;1.00
5136;DHT22;2586;48.710;9.202;2023-05-07T09:09:45;23.50;1.00
5136;DHT22;2586;48.710;9.202;2023-05-07T09:12:11;23.50;1.00
5136;DHT22;2586;48.710;9.202;2023-05-07T09:14:38;23.30;1.00
5136;DHT22;2586;48.710;9.202;2023-05-07T09:17:04;23.20;1.00
5136;DHT22;2586;48.710;9.202;2023-05-07T09:19:30;23.00;1.00
5136;DHT22;2586;48.710;9.202;2023-05-07T09:22:03;23.30;1.00
5136;DHT22;2586;48.710;9.202;2023-05-07T09:24:29;23.30;1.00
5136;DHT22;2586;48.710;9.202;2023-05-07T09:26:59;23.60;1.00
5136;DHT22;2586;48.710;9.202;2023-05-07T09:29:26;23.60;1.00
5136;DHT22;2586;48.710;9.202;2023-05-07T09:31:54;23.80;1.00
5136;DHT22;2586;48.710;9.202;2023-05-07T09:34:20;24.00;1.00
5136;DHT22;2586;48.710;9.202;2023-05-07T09:36:46;24.10;1.00
5136;DHT22;2586;48.710;9.202;2023-05-07T09:39:12;23.90;1.00
5136;DHT22;2586;48.710;9.202;2023-05-07T09:41:45;23.50;1.00
5136;DHT22;2586;48.710;9.202;2023-05-07T09:44:12;23.70;1.00
5136;DHT22;2586;48.710;9.202;2023-05-07T09:46:38;23.70;1.00
5136;DHT22;2586;48.710;9.202;2023-05-07T09:49:06;24.00;1.00
5136;DHT22;2586;48.710;9.202;2023-05-07T09:51:48;24.40;1.00
5136;DHT22;2586;48.710;9.202;2023-05-07T09:54:14;24.60;1.00
5136;DHT22;2586;48.710;9.202;2023-05-07T09:56:40;25.00;1.00
5136;DHT22;2586;48.710;9.202;2023-05-07T09:59:13;25.10;1.00
5136;DHT22;2586;48.710;9.202;2023-05-07T10:01:41;25.60;1.00
5136;DHT22;2586;48.710;9.202;2023-05-07T10:04:07;25.80;1.00
5136;DHT22;2586;48.710;9.202;2023-05-07T10:06:36;26.00;1.00
5136;DHT22;2586;48.710;9.202;2023-05-07T10:09:03;25.60;1.00
5136;DHT22;2586;48.710;9.202;2023-05-07T10:11:35;25.30;1.00
5136;DHT22;2586;48.710;9.202;2023-05-07T10:14:02;25.80;1.00
5136;DHT22;2586;48.710;9.202;2023-05-07T10:16:32;26.00;1.00
5136;DHT22;2586;48.710;9.202;2023-05-07T10:18:58;26.10;1.00
5136;DHT22;2586;48.710;9.202;2023-05-07T10:21:27;26.10;1.00
5136;DHT22;2586;48.710;9.202;2023-05-07T10:24:00;25.80;1.00
5136;DHT22;2586;48.710;9.202;2023-05-07T10:26:30;25.80;1.00
5136;DHT22;2586;48.710;9.202;2023-05-07T10:29:02;26.20;1.00
5136;DHT22;2586;48.710;9.202;2023-05-07T10:31:54;26.60;1.00
5136;DHT22;2586;48.710;9.202;2023-05-07T10:34:28;26.80;1.00
5136;DHT22;2586;48.710;9.202;2023-05-07T10:36:55;27.10;1.00
5136;DHT22;2586;48.710;9.202;2023-05-07T10:39:22;27.40;1.00
5136;DHT22;2586;48.710;9.202;2023-05-07T10:41:48;27.20;1.00
5136;DHT22;2586;48.710;9.202;2023-05-07T10:44:29;27.10;1.00
5136;DHT22;2586;48.710;9.202;2023-05-07T10:47:12;26.80;1.00
5136;DHT22;2586;48.710;9.202;2023-05-07T10:52:23;27.40;1.00
5136;DHT22;2586;48.710;9.202;2023-05-07T10:57:46;28.10;1.00
5136;DHT22;2586;48.710;9.202;2023-05-07T11:05:24;28.10;1.00
5136;DHT22;2586;48.710;9.202;2023-05-07T11:08:00;28.40;1.00
5136;DHT22;2586;48.710;9.202;2023-05-07T11:10:52;28.50;1.00
5136;DHT22;2586;48.710;9.202;2023-05-07T11:13:18;28.10;1.00
5136;DHT22;2586;48.710;9.202;2023-05-07T11:15:46;28.30;1.00
5136;DHT22;2586;48.710;9.202;2023-05-07T11:18:16;28.60;1.00
5136;DHT22;2586;48.710;9.202;2023-05-07T11:20:56;28.60;1.00
5136;DHT22;2586;48.710;9.202;2023-05-07T11:26:10;28.00;1.00
5136;DHT22;2586;48.710;9.202;2023-05-07T11:28:43;27.80;1.00
5136;DHT22;2586;48.710;9.202;2023-05-07T11:31:10;28.00;1.00
5136;DHT22;2586;48.710;9.202;2023-05-07T11:33:37;27.90;1.00
5136;DHT22;2586;48.710;9.202;2023-05-07T11:36:03;27.10;1.00
5136;DHT22;2586;48.710;9.202;2023-05-07T11:38:30;26.50;1.00
5136;DHT22;2586;48.710;9.202;2023-05-07T11:40:57;26.40;1.00
5136;DHT22;2586;48.710;9.202;2023-05-07T11:43:23;26.40;1.00
5136;DHT22;2586;48.710;9.202;2023-05-07T11:45:49;26.40;1.00
5136;DHT22;2586;48.710;9.202;2023-05-07T11:48:15;25.90;1.00
5136;DHT22;2586;48.710;9.202;2023-05-07T11:50:59;25.90;1.00
5136;DHT22;2586;48.710;9.202;2023-05-07T11:53:26;25.60;1.00
5136;DHT22;2586;48.710;9.202;2023-05-07T11:55:53;25.40;1.00
5136;DHT22;2586;48.710;9.202;2023-05-07T11:58:24;25.30;1.00
5136;DHT22;2586;48.710;9.202;2023-05-07T12:00:52;25.20;1.00
5136;DHT22;2586;48.710;9.202;2023-05-07T12:03:17;25.20;1.00
5136;DHT22;2586;48.710;9.202;2023-05-07T12:05:44;24.90;1.00
5136;DHT22;2586;48.710;9.202;2023-05-07T12:08:17;24.90;1.00
5136;DHT22;2586;48.710;9.202;2023-05-07T12:10:44;24.70;1.00
5136;DHT22;2586;48.710;9.202;2023-05-07T12:15:44;24.30;1.00
5136;DHT22;2586;48.710;9.202;2023-05-07T12:18:11;24.10;1.00
5136;DHT22;2586;48.710;9.202;2023-05-07T12:20:37;23.90;1.00
5136;DHT22;2586;48.710;9.202;2023-05-07T12:23:03;23.80;1.00
5136;DHT22;2586;48.710;9.202;2023-05-07T12:25:36;23.30;1.00
5136;DHT22;2586;48.710;9.202;2023-05-07T12:28:03;22.80;1.00
5136;DHT22;2586;48.710;9.202;2023-05-07T12:30:39;22.30;1.00
5136;DHT22;2586;48.710;9.202;2023-05-07T12:33:05;21.70;1.00
5136;DHT22;2586;48.710;9.202;2023-05-07T12:35:32;21.30;1.00
5136;DHT22;2586;48.710;9.202;2023-05-07T12:37:58;21.10;1.00
5136;DHT22;2586;48.710;9.202;2023-05-07T12:40:34;20.90;1.00
5136;DHT22;2586;48.710;9.202;2023-05-07T12:43:00;20.70;1.00
5136;DHT22;2586;48.710;9.202;2023-05-07T12:45:26;20.70;1.00
5136;DHT22;2586;48.710;9.202;2023-05-07T12:47:51;20.60;1.00
5136;DHT22;2586;48.710;9.202;2023-05-07T12:50:17;20.40;1.00
5136;DHT22;2586;48.710;9.202;2023-05-07T12:52:44;20.20;1.00
5136;DHT22;2586;48.710;9.202;2023-05-07T12:55:13;19.70;1.00
5136;DHT22;2586;48.710;9.202;2023-05-07T12:57:42;19.20;99.90
5136;DHT22;2586;48.710;9.202;2023-05-07T13:00:08;18.70;99.90
5136;DHT22;2586;48.710;9.202;2023-05-07T13:02:38;18.50;99.90
5136;DHT22;2586;48.710;9.202;2023-05-07T13:05:04;18.30;99.90
5136;DHT22;2586;48.710;9.202;2023-05-07T13:07:30;17.90;1.00
5136;DHT22;2586;48.710;9.202;2023-05-07T13:09:55;17.60;99.90
5136;DHT22;2586;48.710;9.202;2023-05-07T13:12:21;17.20;1.00
5136;DHT22;2586;48.710;9.202;2023-05-07T13:14:46;17.20;1.00
5136;DHT22;2586;48.710;9.202;2023-05-07T13:17:12;17.00;99.90
5136;DHT22;2586;48.710;9.202;2023-05-07T13:19:37;16.90;1.00
5136;DHT22;2586;48.710;9.202;2023-05-07T13:22:03;16.90;1.00
5136;DHT22;2586;48.710;9.202;2023-05-07T13:24:29;16.70;99.90
5136;DHT22;2586;48.710;9.202;2023-05-07T13:26:55;16.70;99.90
5136;DHT22;2586;48.710;9.202;2023-05-07T13:29:20;16.80;99.90
5136;DHT22;2586;48.710;9.202;2023-05-07T13:31:54;16.60;99.90
5136;DHT22;2586;48.710;9.202;2023-05-07T13:34:19;16.40;1.00
5136;DHT22;2586;48.710;9.202;2023-05-07T13:36:45;16.20;1.00
5136;DHT22;2586;48.710;9.202;2023-05-07T13:39:11;16.30;1.00
5136;DHT22;2586;48.710;9.202;2023-05-07T13:41:36;16.40;1.00
5136;DHT22;2586;48.710;9.202;2023-05-07T13:44:02;16.60;1.00
5136;DHT22;2586;48.710;9.202;2023-05-07T13:46:27;16.50;1.00
5136;DHT22;2586;48.710;9.202;2023-05-07T13:48:55;16.40;83.00
5136;DHT22;2586;48.710;9.202;2023-05-07T13:51:20;16.50;1.00
5136;DHT22;2586;48.710;9.202;2023-05-07T13:53:46;16.70;1.00
5136;DHT22;2586;48.710;9.202;2023-05-07T13:56:14;16.40;1.00
5136;DHT22;2586;48.710;9.202;2023-05-07T13:58:40;16.10;99.90
5136;DHT22;2586;48.710;9.202;2023-05-07T14:01:06;16.10;1.00
5136;DHT22;2586;48.710;9.202;2023-05-07T14:03:31;15.90;99.90
5136;DHT22;2586;48.710;9.202;2023-05-07T14:05:59;15.70;99.90
5136;DHT22;2586;48.710;9.202;2023-05-07T14:08:25;15.70;1.00
5136;DHT22;2586;48.710;9.202;2023-05-07T14:10:51;15.60;99.90
5136;DHT22;2586;48.710;9.202;2023-05-07T14:13:17;15.60;1.00
5136;DHT22;2586;48.710;9.202;2023-05-07T14:15:42;15.60;99.90
5136;DHT22;2586;48.710;9.202;2023-05-07T14:18:15;15.70;99.90
5136;DHT22;2586;48.710;9.202;2023-05-07T14:20:40;15.70;1.00
5136;DHT22;2586;48.710;9.202;2023-05-07T14:23:06;15.60;1.00
5136;DHT22;2586;48.710;9.202;2023-05-07T14:25:32;15.70;99.90
5136;DHT22;2586;48.710;9.202;2023-05-07T14:27:57;15.70;99.90
5136;DHT22;2586;48.710;9.202;2023-05-07T14:30:23;15.60;99.90
5136;DHT22;2586;48.710;9.202;2023-05-07T14:32:50;15.50;99.90
5136;DHT22;2586;48.710;9.202;2023-05-07T14:35:15;15.40;35.60
5136;DHT22;2586;48.710;9.202;2023-05-07T14:37:41;15.40;1.00
5136;DHT22;2586;48.710;9.202;2023-05-07T14:40:07;15.30;99.90
5136;DHT22;2586;48.710;9.202;2023-05-07T14:42:33;15.30;1.00
5136;DHT22;2586;48.710;9.202;2023-05-07T14:44:58;15.30;99.90
5136;DHT22;2586;48.710;9.202;2023-05-07T14:47:24;15.40;1.00
5136;DHT22;2586;48.710;9.202;2023-05-07T14:49:49;15.30;99.90
5136;DHT22;2586;48.710;9.202;2023-05-07T14:52:15;15.40;1.00
5136;DHT22;2586;48.710;9.202;2023-05-07T14:54:40;15.50;1.00
5136;DHT22;2586;48.710;9.202;2023-05-07T14:57:09;15.50;93.80
5136;DHT22;2586;48.710;9.202;2023-05-07T14:59:35;15.60;1.00
5136;DHT22;2586;48.710;9.202;2023-05-07T15:02:01;15.70;1.00
5136;DHT22;2586;48.710;9.202;2023-05-07T15:04:27;15.70;5.50
5136;DHT22;2586;48.710;9.202;2023-05-07T15:06:53;15.80;81.10
5136;DHT22;2586;48.710;9.202;2023-05-07T15:09:21;15.80;56.70
5136;DHT22;2586;48.710;9.202;2023-05-07T15:11:47;15.90;99.90
5136;DHT22;2586;48.710;9.202;2023-05-07T15:14:12;15.90;99.90
5136;DHT22;2586;48.710;9.202;2023-05-07T15:16:38;15.90;99.90
5136;DHT22;2586;48.710;9.202;2023-05-07T15:19:03;15.90;1.00
5136;DHT22;2586;48.710;9.202;2023-05-07T15:21:29;16.00;7.80
5136;DHT22;2586;48.710;9.202;2023-05-07T15:23:56;16.00;1.00
5136;DHT22;2586;48.710;9.202;2023-05-07T15:26:21;16.10;1.00
5136;DHT22;2586;48.710;9.202;2023-05-07T15:28:47;16.20;1.00
5136;DHT22;2586;48.710;9.202;2023-05-07T15:31:12;16.20;99.90
5136;DHT22;2586;48.710;9.202;2023-05-07T15:33:38;16.20;1.00
5136;DHT22;2586;48.710;9.202;2023-05-07T15:36:04;16.30;1.00
5136;DHT22;2586;48.710;9.202;2023-05-07T15:38:30;16.40;1.00
5136;DHT22;2586;48.710;9.202;2023-05-07T15:40:56;16.20;1.00
5136;DHT22;2586;48.710;9.202;2023-05-07T15:43:21;16.20;1.00
5136;DHT22;2586;48.710;9.202;2023-05-07T15:45:47;16.30;99.90
5136;DHT22;2586;48.710;9.202;2023-05-07T15:48:12;16.50;1.00
5136;DHT22;2586;48.710;9.202;2023-05-07T15:50:38;16.60;1.00
5136;DHT22;2586;48.710;9.202;2023-05-07T15:53:04;16.60;1.00
5136;DHT22;2586;48.710;9.202;2023-05-07T15:55:30;16.70;99.90
5136;DHT22;2586;48.710;9.202;2023-05-07T15:57:57;16.80;1.00
5136;DHT22;2586;48.710;9.202;2023-05-07T16:00:24;16.80;1.00
5136;DHT22;2586;48.710;9.202;2023-05-07T16:02:51;16.80;1.00
5136;DHT22;2586;48.710;9.202;2023-05-07T16:05:17;16.90;1.00
5136;DHT22;2586;48.710;9.202;2023-05-07T16:07:42;16.90;1.00
5136;DHT22;2586;48.710;9.202;2023-05-07T16:10:09;16.80;1.00
5136;DHT22;2586;48.710;9.202;2023-05-07T16:12:35;16.70;17.90
5136;DHT22;2586;48.710;9.202;2023-05-07T16:15:01;16.60;1.00
5136;DHT22;2586;48.710;9.202;2023-05-07T16:17:27;16.60;1.00
5136;DHT22;2586;48.710;9.202;2023-05-07T16:19:52;16.60;1.00
5136;DHT22;2586;48.710;9.202;2023-05-07T16:22:18;16.50;1.00
5136;DHT22;2586;48.710;9.202;2023-05-07T16:24:44;16.50;1.00